sensor_id;sensor_type;location;lat;lon;timestamp;P1;durP1;ratioP1;P2;durP2;ratioP2
16270;SDS011;8243;49.048;8.396;2023-06-14T00:01:51;5.33;;;4.03;;
16270;SDS011;8243;49.048;8.396;2023-06-14T00:04:17;5.77;;;4.13;;
16270;SDS011;8243;49.048;8.396;2023-06-14T00:06:44;6.33;;;4.23;;
16270;SDS011;8243;49.048;8.396;2023-06-14T00:09:10;5.13;;;4.17;;
16270;SDS011;8243;49.048;8.396;2023-06-14T00:11:37;5.53;;;4.53;;
16270;SDS011;8243;49.048;8.396;2023-06-14T00:14:03;4.63;;;4.10;;
16270;SDS011;8243;49.048;8.396;2023-06-14T00:16:29;4.80;;;3.93;;
16270;SDS011;8243;49.048;8.396;2023-06-14T00:18:55;6.13;;;4.63;;
16270;SDS011;8243;49.048;8.396;2023-06-14T00:21:21;5.17;;;4.47;;
16270;SDS011;8243;49.048;8.396;2023-06-14T00:23:46;5.07;;;4.17;;
16270;SDS011;8243;49.048;8.396;2023-06-14T00:26:12;6.50;;;4.57;;
16270;SDS011;8243;49.048;8.396;2023-06-14T00:28:37;6.20;;;4.70;;
16270;SDS011;8243;49.048;8.396;2023-06-14T00:31:03;6.40;;;4.50;;
16270;SDS011;8243;49.048;8.396;2023-06-14T00:33:29;7.17;;;4.70;;
16270;SDS011;8243;49.048;8.396;2023-06-14T00:35:55;5.43;;;4.87;;
16270;SDS011;8243;49.048;8.396;2023-06-14T00:38:20;8.43;;;4.63;;
16270;SDS011;8243;49.048;8.396;2023-06-14T00:40:46;5.10;;;4.17;;
16270;SDS011;8243;49.048;8.396;2023-06-14T00:43:12;6.60;;;4.47;;
16270;SDS011;8243;49.048;8.396;2023-06-14T00:45:37;5.30;;;4.40;;
16270;SDS011;8243;49.048;8.396;2023-06-14T00:48:04;5.27;;;4.23;;
16270;SDS011;8243;49.048;8.396;2023-06-14T00:50:31;6.07;;;4.40;;
16270;SDS011;8243;49.048;8.396;2023-06-14T00:52:58;7.57;;;5.07;;
16270;SDS011;8243;49.048;8.396;2023-06-14T00:55:27;5.33;;;4.80;;
16270;SDS011;8243;49.048;8.396;2023-06-14T00:57:54;4.60;;;4.20;;
16270;SDS011;8243;49.048;8.396;2023-06-14T01:00:20;9.40;;;4.33;;
16270;SDS011;8243;49.048;8.396;2023-06-14T01:02:46;5.47;;;4.23;;
16270;SDS011;8243;49.048;8.396;2023-06-14T01:05:12;5.17;;;4.67;;
16270;SDS011;8243;49.048;8.396;2023-06-14T01:13:10;5.63;;;3.87;;
16270;SDS011;8243;49.048;8.396;2023-06-14T01:15:45;8.73;;;4.10;;
16270;SDS011;8243;49.048;8.396;2023-06-14T01:18:12;6.70;;;4.03;;
16270;SDS011;8243;49.048;8.396;2023-06-14T01:20:44;5.23;;;4.27;;
16270;SDS011;8243;49.048;8.396;2023-06-14T01:23:14;5.50;;;4.40;;
16270;SDS011;8243;49.048;8.396;2023-06-14T01:25:43;5.73;;;4.13;;
16270;SDS011;8243;49.048;8.396;2023-06-14T01:28:09;6.10;;;4.50;;
16270;SDS011;8243;49.048;8.396;2023-06-14T01:30:38;4.63;;;4.17;;
16270;SDS011;8243;49.048;8.396;2023-06-14T01:33:10;6.37;;;3.87;;
16270;SDS011;8243;49.048;8.396;2023-06-14T01:35:44;5.83;;;4.13;;
16270;SDS011;8243;49.048;8.396;2023-06-14T01:38:12;7.17;;;3.43;;
16270;SDS011;8243;49.048;8.396;2023-06-14T01:40:39;6.03;;;4.37;;
16270;SDS011;8243;49.048;8.396;2023-06-14T01:43:07;4.87;;;4.37;;
16270;SDS011;8243;49.048;8.396;2023-06-14T01:45:34;5.97;;;4.10;;
16270;SDS011;8243;49.048;8.396;2023-06-14T01:48:01;5.97;;;3.53;;
16270;SDS011;8243;49.048;8.396;2023-06-14T01:50:28;8.80;;;3.97;;
16270;SDS011;8243;49.048;8.396;2023-06-14T01:52:55;4.63;;;3.97;;
16270;SDS011;8243;49.048;8.396;2023-06-14T01:55:20;5.23;;;4.00;;
16270;SDS011;8243;49.048;8.396;2023-06-14T01:57:46;4.70;;;4.30;;
16270;SDS011;8243;49.048;8.396;2023-06-14T02:00:13;4.37;;;3.83;;
16270;SDS011;8243;49.048;8.396;2023-06-14T02:02:39;3.73;;;3.43;;
16270;SDS011;8243;49.048;8.396;2023-06-14T02:05:05;4.00;;;3.60;;
16270;SDS011;8243;49.048;8.396;2023-06-14T02:07:31;6.53;;;4.10;;
16270;SDS011;8243;49.048;8.396;2023-06-14T02:09:57;9.53;;;4.00;;
16270;SDS011;8243;49.048;8.396;2023-06-14T02:12:22;5.63;;;4.17;;
16270;SDS011;8243;49.048;8.396;2023-06-14T02:14:48;5.53;;;4.07;;
16270;SDS011;8243;49.048;8.396;2023-06-14T02:17:14;6.13;;;4.37;;
16270;SDS011;8243;49.048;8.396;2023-06-14T02:19:40;4.70;;;4.23;;
16270;SDS011;8243;49.048;8.396;2023-06-14T02:22:05;7.00;;;4.50;;
16270;SDS011;8243;49.048;8.396;2023-06-14T02:24:31;7.07;;;4.47;;
16270;SDS011;8243;49.048;8.396;2023-06-14T02:26:57;7.07;;;4.57;;
16270;SDS011;8243;49.048;8.396;2023-06-14T02:29:22;4.73;;;4.17;;
16270;SDS011;8243;49.048;8.396;2023-06-14T02:31:48;5.30;;;4.57;;
16270;SDS011;8243;49.048;8.396;2023-06-14T02:34:14;6.07;;;4.40;;
16270;SDS011;8243;49.048;8.396;2023-06-14T02:36:41;5.87;;;4.60;;
16270;SDS011;8243;49.048;8.396;2023-06-14T02:39:08;5.37;;;4.60;;
16270;SDS011;8243;49.048;8.396;2023-06-14T02:41:36;6.67;;;4.70;;
16270;SDS011;8243;49.048;8.396;2023-06-14T02:44:02;5.07;;;4.57;;
16270;SDS011;8243;49.048;8.396;2023-06-14T02:46:28;4.73;;;4.33;;
16270;SDS011;8243;49.048;8.396;2023-06-14T02:48:54;4.90;;;3.90;;
16270;SDS011;8243;49.048;8.396;2023-06-14T02:51:19;8.43;;;5.00;;
16270;SDS011;8243;49.048;8.396;2023-06-14T02:53:45;5.10;;;4.40;;
16270;SDS011;8243;49.048;8.396;2023-06-14T02:56:10;7.50;;;4.97;;
16270;SDS011;8243;49.048;8.396;2023-06-14T02:58:37;4.63;;;4.00;;
16270;SDS011;8243;49.048;8.396;2023-06-14T03:01:04;6.40;;;4.70;;
16270;SDS011;8243;49.048;8.396;2023-06-14T03:03:30;5.17;;;4.40;;
16270;SDS011;8243;49.048;8.396;2023-06-14T03:05:56;5.53;;;4.60;;
16270;SDS011;8243;49.048;8.396;2023-06-14T03:08:22;5.27;;;4.77;;
16270;SDS011;8243;49.048;8.396;2023-06-14T03:10:52;5.93;;;4.47;;
16270;SDS011;8243;49.048;8.396;2023-06-14T03:13:18;5.70;;;4.10;;
16270;SDS011;8243;49.048;8.396;2023-06-14T03:15:46;5.27;;;4.47;;
16270;SDS011;8243;49.048;8.396;2023-06-14T03:18:12;4.97;;;4.43;;
16270;SDS011;8243;49.048;8.396;2023-06-14T03:20:40;4.67;;;4.27;;
16270;SDS011;8243;49.048;8.396;2023-06-14T03:23:06;6.97;;;5.00;;
16270;SDS011;8243;49.048;8.396;2023-06-14T03:25:31;7.80;;;4.77;;
16270;SDS011;8243;49.048;8.396;2023-06-14T03:28:00;7.90;;;4.23;;
16270;SDS011;8243;49.048;8.396;2023-06-14T03:30:26;5.90;;;4.17;;
16270;SDS011;8243;49.048;8.396;2023-06-14T03:32:52;4.57;;;4.17;;
16270;SDS011;8243;49.048;8.396;2023-06-14T03:35:18;8.67;;;4.60;;
16270;SDS011;8243;49.048;8.396;2023-06-14T03:37:44;5.10;;;4.70;;
16270;SDS011;8243;49.048;8.396;2023-06-14T03:40:11;5.43;;;4.27;;
16270;SDS011;8243;49.048;8.396;2023-06-14T03:42:38;6.17;;;4.47;;
16270;SDS011;8243;49.048;8.396;2023-06-14T03:45:04;4.27;;;3.87;;
16270;SDS011;8243;49.048;8.396;2023-06-14T03:47:30;5.37;;;4.53;;
16270;SDS011;8243;49.048;8.396;2023-06-14T03:49:55;6.80;;;4.23;;
16270;SDS011;8243;49.048;8.396;2023-06-14T03:52:21;5.50;;;4.60;;
16270;SDS011;8243;49.048;8.396;2023-06-14T03:54:48;5.20;;;4.73;;
16270;SDS011;8243;49.048;8.396;2023-06-14T03:57:14;6.53;;;4.60;;
16270;SDS011;8243;49.048;8.396;2023-06-14T03:59:40;7.10;;;4.80;;
16270;SDS011;8243;49.048;8.396;2023-06-14T04:02:06;5.17;;;4.67;;
16270;SDS011;8243;49.048;8.396;2023-06-14T04:04:32;4.97;;;4.47;;
16270;SDS011;8243;49.048;8.396;2023-06-14T04:07:00;5.57;;;4.27;;
16270;SDS011;8243;49.048;8.396;2023-06-14T04:09:28;5.43;;;4.93;;
16270;SDS011;8243;49.048;8.396;2023-06-14T04:11:57;4.73;;;4.33;;
16270;SDS011;8243;49.048;8.396;2023-06-14T04:14:22;5.20;;;4.47;;
16270;SDS011;8243;49.048;8.396;2023-06-14T04:16:48;7.50;;;4.70;;
16270;SDS011;8243;49.048;8.396;2023-06-14T04:19:15;8.23;;;4.70;;
16270;SDS011;8243;49.048;8.396;2023-06-14T04:21:41;6.10;;;4.37;;
16270;SDS011;8243;49.048;8.396;2023-06-14T04:24:06;6.63;;;4.73;;
16270;SDS011;8243;49.048;8.396;2023-06-14T04:26:39;5.77;;;4.37;;
16270;SDS011;8243;49.048;8.396;2023-06-14T04:29:09;7.67;;;4.77;;
16270;SDS011;8243;49.048;8.396;2023-06-14T04:31:39;5.13;;;4.53;;
16270;SDS011;8243;49.048;8.396;2023-06-14T04:34:05;7.53;;;4.90;;
16270;SDS011;8243;49.048;8.396;2023-06-14T04:36:35;7.10;;;4.70;;
16270;SDS011;8243;49.048;8.396;2023-06-14T04:39:04;6.10;;;4.57;;
16270;SDS011;8243;49.048;8.396;2023-06-14T04:41:29;4.50;;;4.10;;
16270;SDS011;8243;49.048;8.396;2023-06-14T04:44:00;5.80;;;4.63;;
16270;SDS011;8243;49.048;8.396;2023-06-14T04:46:27;4.80;;;4.30;;
16270;SDS011;8243;49.048;8.396;2023-06-14T04:48:53;4.93;;;4.37;;
16270;SDS011;8243;49.048;8.396;2023-06-14T04:51:19;8.53;;;5.33;;
16270;SDS011;8243;49.048;8.396;2023-06-14T04:53:46;5.40;;;4.90;;
16270;SDS011;8243;49.048;8.396;2023-06-14T04:56:11;5.00;;;4.50;;
16270;SDS011;8243;49.048;8.396;2023-06-14T04:58:37;5.70;;;4.97;;
16270;SDS011;8243;49.048;8.396;2023-06-14T05:01:03;5.10;;;4.60;;
16270;SDS011;8243;49.048;8.396;2023-06-14T05:03:29;5.47;;;4.90;;
16270;SDS011;8243;49.048;8.396;2023-06-14T05:05:56;7.63;;;4.47;;
16270;SDS011;8243;49.048;8.396;2023-06-14T05:08:22;8.13;;;4.90;;
16270;SDS011;8243;49.048;8.396;2023-06-14T05:10:50;5.73;;;4.73;;
16270;SDS011;8243;49.048;8.396;2023-06-14T05:13:17;9.63;;;5.20;;
16270;SDS011;8243;49.048;8.396;2023-06-14T05:15:43;5.00;;;4.47;;
16270;SDS011;8243;49.048;8.396;2023-06-14T05:18:08;7.63;;;4.87;;
16270;SDS011;8243;49.048;8.396;2023-06-14T05:20:34;7.03;;;4.67;;
16270;SDS011;8243;49.048;8.396;2023-06-14T05:23:02;5.13;;;4.60;;
16270;SDS011;8243;49.048;8.396;2023-06-14T05:25:28;5.57;;;4.33;;
16270;SDS011;8243;49.048;8.396;2023-06-14T05:27:53;4.93;;;4.43;;
16270;SDS011;8243;49.048;8.396;2023-06-14T05:30:19;7.40;;;4.80;;
16270;SDS011;8243;49.048;8.396;2023-06-14T05:32:45;7.37;;;4.83;;
16270;SDS011;8243;49.048;8.396;2023-06-14T05:35:11;4.70;;;4.27;;
16270;SDS011;8243;49.048;8.396;2023-06-14T05:37:36;5.63;;;4.93;;
16270;SDS011;8243;49.048;8.396;2023-06-14T05:40:03;6.70;;;4.80;;
16270;SDS011;8243;49.048;8.396;2023-06-14T05:42:33;5.00;;;4.60;;
16270;SDS011;8243;49.048;8.396;2023-06-14T05:44:59;5.43;;;4.90;;
16270;SDS011;8243;49.048;8.396;2023-06-14T05:47:25;5.43;;;4.67;;
16270;SDS011;8243;49.048;8.396;2023-06-14T05:49:52;5.40;;;4.90;;
16270;SDS011;8243;49.048;8.396;2023-06-14T05:52:18;5.13;;;4.50;;
16270;SDS011;8243;49.048;8.396;2023-06-14T05:54:43;5.93;;;4.93;;
16270;SDS011;8243;49.048;8.396;2023-06-14T05:57:10;5.10;;;4.60;;
16270;SDS011;8243;49.048;8.396;2023-06-14T05:59:35;6.53;;;4.40;;
16270;SDS011;8243;49.048;8.396;2023-06-14T06:02:01;6.17;;;5.20;;
16270;SDS011;8243;49.048;8.396;2023-06-14T06:04:26;5.17;;;4.70;;
16270;SDS011;8243;49.048;8.396;2023-06-14T06:06:52;5.90;;;4.60;;
16270;SDS011;8243;49.048;8.396;2023-06-14T06:09:18;6.10;;;4.73;;
16270;SDS011;8243;49.048;8.396;2023-06-14T06:11:44;7.83;;;4.77;;
16270;SDS011;8243;49.048;8.396;2023-06-14T06:14:09;5.30;;;4.80;;
16270;SDS011;8243;49.048;8.396;2023-06-14T06:16:35;4.60;;;4.20;;
16270;SDS011;8243;49.048;8.396;2023-06-14T06:19:00;8.00;;;4.43;;
16270;SDS011;8243;49.048;8.396;2023-06-14T06:21:26;4.60;;;4.20;;
16270;SDS011;8243;49.048;8.396;2023-06-14T06:23:51;6.73;;;4.27;;
16270;SDS011;8243;49.048;8.396;2023-06-14T06:26:17;5.40;;;4.50;;
16270;SDS011;8243;49.048;8.396;2023-06-14T06:28:43;6.07;;;4.40;;
16270;SDS011;8243;49.048;8.396;2023-06-14T06:31:08;8.93;;;4.83;;
16270;SDS011;8243;49.048;8.396;2023-06-14T06:33:36;5.53;;;4.57;;
16270;SDS011;8243;49.048;8.396;2023-06-14T06:36:01;5.00;;;4.50;;
16270;SDS011;8243;49.048;8.396;2023-06-14T06:38:27;8.60;;;4.33;;
16270;SDS011;8243;49.048;8.396;2023-06-14T06:40:53;7.17;;;4.53;;
16270;SDS011;8243;49.048;8.396;2023-06-14T06:43:19;5.40;;;4.00;;
16270;SDS011;8243;49.048;8.396;2023-06-14T06:45:45;6.07;;;4.77;;
16270;SDS011;8243;49.048;8.396;2023-06-14T06:48:10;8.90;;;4.83;;
16270;SDS011;8243;49.048;8.396;2023-06-14T06:50:36;6.67;;;4.27;;
16270;SDS011;8243;49.048;8.396;2023-06-14T06:53:02;5.90;;;4.37;;
16270;SDS011;8243;49.048;8.396;2023-06-14T06:55:27;5.00;;;4.13;;
16270;SDS011;8243;49.048;8.396;2023-06-14T06:57:53;5.10;;;3.87;;
16270;SDS011;8243;49.048;8.396;2023-06-14T07:00:19;7.07;;;4.37;;
16270;SDS011;8243;49.048;8.396;2023-06-14T07:02:45;6.00;;;3.90;;
16270;SDS011;8243;49.048;8.396;2023-06-14T07:05:11;4.83;;;4.00;;
16270;SDS011;8243;49.048;8.396;2023-06-14T07:07:37;4.13;;;3.67;;
16270;SDS011;8243;49.048;8.396;2023-06-14T07:10:03;5.67;;;3.87;;
16270;SDS011;8243;49.048;8.396;2023-06-14T07:12:30;4.53;;;4.13;;
16270;SDS011;8243;49.048;8.396;2023-06-14T07:14:58;4.73;;;4.27;;
16270;SDS011;8243;49.048;8.396;2023-06-14T07:17:24;6.07;;;3.97;;
16270;SDS011;8243;49.048;8.396;2023-06-14T07:19:50;5.67;;;4.10;;
16270;SDS011;8243;49.048;8.396;2023-06-14T07:22:16;6.10;;;4.10;;
16270;SDS011;8243;49.048;8.396;2023-06-14T07:24:42;5.37;;;3.90;;
16270;SDS011;8243;49.048;8.396;2023-06-14T07:27:08;7.30;;;4.10;;
16270;SDS011;8243;49.048;8.396;2023-06-14T07:29:33;5.00;;;3.80;;
16270;SDS011;8243;49.048;8.396;2023-06-14T07:31:59;4.90;;;3.80;;
16270;SDS011;8243;49.048;8.396;2023-06-14T07:34:25;4.40;;;4.00;;
16270;SDS011;8243;49.048;8.396;2023-06-14T07:36:51;5.37;;;3.93;;
16270;SDS011;8243;49.048;8.396;2023-06-14T07:39:16;4.90;;;3.90;;
16270;SDS011;8243;49.048;8.396;2023-06-14T07:41:42;6.50;;;4.07;;
16270;SDS011;8243;49.048;8.396;2023-06-14T07:44:07;5.77;;;3.83;;
16270;SDS011;8243;49.048;8.396;2023-06-14T07:46:33;6.37;;;4.00;;
16270;SDS011;8243;49.048;8.396;2023-06-14T07:48:59;5.57;;;4.30;;
16270;SDS011;8243;49.048;8.396;2023-06-14T07:51:25;7.50;;;4.27;;
16270;SDS011;8243;49.048;8.396;2023-06-14T07:53:50;4.57;;;4.17;;
16270;SDS011;8243;49.048;8.396;2023-06-14T07:56:16;3.93;;;3.50;;
16270;SDS011;8243;49.048;8.396;2023-06-14T07:58:42;4.10;;;3.70;;
16270;SDS011;8243;49.048;8.396;2023-06-14T08:01:08;5.07;;;4.00;;
16270;SDS011;8243;49.048;8.396;2023-06-14T08:03:33;6.00;;;4.10;;
16270;SDS011;8243;49.048;8.396;2023-06-14T08:05:59;4.83;;;3.80;;
16270;SDS011;8243;49.048;8.396;2023-06-14T08:08:25;5.40;;;3.73;;
16270;SDS011;8243;49.048;8.396;2023-06-14T08:10:51;6.73;;;4.10;;
16270;SDS011;8243;49.048;8.396;2023-06-14T08:13:17;5.23;;;3.73;;
16270;SDS011;8243;49.048;8.396;2023-06-14T08:15:43;5.37;;;3.73;;
16270;SDS011;8243;49.048;8.396;2023-06-14T08:18:09;4.87;;;3.80;;
16270;SDS011;8243;49.048;8.396;2023-06-14T08:20:34;5.43;;;3.43;;
16270;SDS011;8243;49.048;8.396;2023-06-14T08:23:01;3.83;;;3.53;;
16270;SDS011;8243;49.048;8.396;2023-06-14T08:25:29;4.43;;;3.70;;
16270;SDS011;8243;49.048;8.396;2023-06-14T08:27:55;6.63;;;3.70;;
16270;SDS011;8243;49.048;8.396;2023-06-14T08:30:21;6.20;;;3.90;;
16270;SDS011;8243;49.048;8.396;2023-06-14T08:32:47;6.70;;;3.80;;
16270;SDS011;8243;49.048;8.396;2023-06-14T08:35:12;5.50;;;3.70;;
16270;SDS011;8243;49.048;8.396;2023-06-14T08:37:40;6.33;;;4.00;;
16270;SDS011;8243;49.048;8.396;2023-06-14T08:40:07;7.43;;;3.77;;
16270;SDS011;8243;49.048;8.396;2023-06-14T08:42:43;5.20;;;4.00;;
16270;SDS011;8243;49.048;8.396;2023-06-14T08:45:10;4.47;;;3.70;;
16270;SDS011;8243;49.048;8.396;2023-06-14T08:47:36;4.57;;;3.83;;
16270;SDS011;8243;49.048;8.396;2023-06-14T08:50:01;3.97;;;3.57;;
16270;SDS011;8243;49.048;8.396;2023-06-14T08:52:29;4.83;;;3.63;;
16270;SDS011;8243;49.048;8.396;2023-06-14T08:54:58;4.20;;;3.60;;
16270;SDS011;8243;49.048;8.396;2023-06-14T08:57:25;4.50;;;3.47;;
16270;SDS011;8243;49.048;8.396;2023-06-14T08:59:55;5.03;;;3.87;;
16270;SDS011;8243;49.048;8.396;2023-06-14T09:02:21;7.83;;;4.20;;
16270;SDS011;8243;49.048;8.396;2023-06-14T09:04:47;7.67;;;3.97;;
16270;SDS011;8243;49.048;8.396;2023-06-14T09:07:14;3.97;;;3.60;;
16270;SDS011;8243;49.048;8.396;2023-06-14T09:09:40;3.87;;;3.47;;
16270;SDS011;8243;49.048;8.396;2023-06-14T09:12:10;4.83;;;3.40;;
16270;SDS011;8243;49.048;8.396;2023-06-14T09:14:37;5.67;;;3.93;;
16270;SDS011;8243;49.048;8.396;2023-06-14T09:17:05;3.77;;;3.27;;
16270;SDS011;8243;49.048;8.396;2023-06-14T09:19:30;4.30;;;3.30;;
16270;SDS011;8243;49.048;8.396;2023-06-14T09:21:56;3.90;;;3.50;;
16270;SDS011;8243;49.048;8.396;2023-06-14T09:24:23;3.77;;;3.40;;
16270;SDS011;8243;49.048;8.396;2023-06-14T09:26:50;4.97;;;3.67;;
16270;SDS011;8243;49.048;8.396;2023-06-14T09:29:16;6.10;;;3.90;;
16270;SDS011;8243;49.048;8.396;2023-06-14T09:31:46;5.13;;;3.97;;
16270;SDS011;8243;49.048;8.396;2023-06-14T09:34:12;4.47;;;3.70;;
16270;SDS011;8243;49.048;8.396;2023-06-14T09:36:38;5.57;;;3.57;;
16270;SDS011;8243;49.048;8.396;2023-06-14T09:39:05;4.87;;;3.60;;
16270;SDS011;8243;49.048;8.396;2023-06-14T09:41:36;11.40;;;4.00;;
16270;SDS011;8243;49.048;8.396;2023-06-14T09:44:06;4.10;;;3.70;;
16270;SDS011;8243;49.048;8.396;2023-06-14T09:46:33;4.37;;;3.60;;
16270;SDS011;8243;49.048;8.396;2023-06-14T09:49:00;6.37;;;3.80;;
16270;SDS011;8243;49.048;8.396;2023-06-14T09:51:27;6.20;;;3.60;;
16270;SDS011;8243;49.048;8.396;2023-06-14T09:53:55;4.13;;;3.60;;
16270;SDS011;8243;49.048;8.396;2023-06-14T09:56:27;3.87;;;3.47;;
16270;SDS011;8243;49.048;8.396;2023-06-14T09:58:58;5.27;;;3.83;;
16270;SDS011;8243;49.048;8.396;2023-06-14T10:01:25;4.13;;;3.60;;
16270;SDS011;8243;49.048;8.396;2023-06-14T10:04:01;4.90;;;3.63;;
16270;SDS011;8243;49.048;8.396;2023-06-14T10:06:31;4.67;;;3.50;;
16270;SDS011;8243;49.048;8.396;2023-06-14T10:09:02;5.07;;;3.27;;
16270;SDS011;8243;49.048;8.396;2023-06-14T10:11:29;4.83;;;3.37;;
16270;SDS011;8243;49.048;8.396;2023-06-14T10:13:55;3.50;;;3.20;;
16270;SDS011;8243;49.048;8.396;2023-06-14T10:16:27;3.30;;;2.83;;
16270;SDS011;8243;49.048;8.396;2023-06-14T10:19:10;4.60;;;3.60;;
16270;SDS011;8243;49.048;8.396;2023-06-14T10:24:33;5.83;;;3.17;;
16270;SDS011;8243;49.048;8.396;2023-06-14T10:27:04;6.20;;;3.37;;
16270;SDS011;8243;49.048;8.396;2023-06-14T10:29:35;7.03;;;3.90;;
16270;SDS011;8243;49.048;8.396;2023-06-14T10:32:26;6.67;;;3.53;;
16270;SDS011;8243;49.048;8.396;2023-06-14T10:34:55;3.17;;;2.97;;
16270;SDS011;8243;49.048;8.396;2023-06-14T10:37:22;6.10;;;3.00;;
16270;SDS011;8243;49.048;8.396;2023-06-14T10:39:49;3.47;;;3.17;;
16270;SDS011;8243;49.048;8.396;2023-06-14T10:42:15;5.97;;;3.27;;
16270;SDS011;8243;49.048;8.396;2023-06-14T10:44:42;8.50;;;3.50;;
16270;SDS011;8243;49.048;8.396;2023-06-14T10:47:20;4.17;;;3.30;;
16270;SDS011;8243;49.048;8.396;2023-06-14T10:49:50;4.10;;;3.67;;
16270;SDS011;8243;49.048;8.396;2023-06-14T10:52:27;4.00;;;3.30;;
16270;SDS011;8243;49.048;8.396;2023-06-14T10:55:10;4.50;;;3.67;;
16270;SDS011;8243;49.048;8.396;2023-06-14T10:57:48;6.20;;;3.63;;
16270;SDS011;8243;49.048;8.396;2023-06-14T11:00:21;4.23;;;3.93;;
16270;SDS011;8243;49.048;8.396;2023-06-14T11:05:21;6.23;;;4.17;;
16270;SDS011;8243;49.048;8.396;2023-06-14T11:10:40;5.33;;;3.90;;
16270;SDS011;8243;49.048;8.396;2023-06-14T11:13:07;5.27;;;3.90;;
16270;SDS011;8243;49.048;8.396;2023-06-14T11:15:33;6.57;;;3.67;;
16270;SDS011;8243;49.048;8.396;2023-06-14T11:18:09;4.50;;;3.87;;
16270;SDS011;8243;49.048;8.396;2023-06-14T11:20:35;4.60;;;4.20;;
16270;SDS011;8243;49.048;8.396;2023-06-14T11:23:01;4.83;;;3.93;;
16270;SDS011;8243;49.048;8.396;2023-06-14T11:25:28;5.10;;;4.50;;
16270;SDS011;8243;49.048;8.396;2023-06-14T11:27:54;4.80;;;4.40;;
16270;SDS011;8243;49.048;8.396;2023-06-14T11:30:23;7.87;;;4.23;;
16270;SDS011;8243;49.048;8.396;2023-06-14T11:32:51;5.93;;;4.10;;
16270;SDS011;8243;49.048;8.396;2023-06-14T11:35:18;8.43;;;4.20;;
16270;SDS011;8243;49.048;8.396;2023-06-14T11:37:47;8.33;;;4.33;;
16270;SDS011;8243;49.048;8.396;2023-06-14T11:40:13;5.30;;;3.83;;
16270;SDS011;8243;49.048;8.396;2023-06-14T11:42:40;6.37;;;3.93;;
16270;SDS011;8243;49.048;8.396;2023-06-14T11:45:12;3.97;;;3.67;;
16270;SDS011;8243;49.048;8.396;2023-06-14T11:47:38;4.40;;;4.00;;
16270;SDS011;8243;49.048;8.396;2023-06-14T11:50:06;6.10;;;3.93;;
16270;SDS011;8243;49.048;8.396;2023-06-14T11:52:36;4.13;;;3.83;;
16270;SDS011;8243;49.048;8.396;2023-06-14T11:55:02;8.00;;;3.73;;
16270;SDS011;8243;49.048;8.396;2023-06-14T11:57:34;5.60;;;3.50;;
16270;SDS011;8243;49.048;8.396;2023-06-14T12:00:04;4.20;;;3.17;;
16270;SDS011;8243;49.048;8.396;2023-06-14T12:02:36;4.07;;;3.30;;
16270;SDS011;8243;49.048;8.396;2023-06-14T12:05:06;5.00;;;3.13;;
16270;SDS011;8243;49.048;8.396;2023-06-14T12:07:35;5.67;;;3.20;;
16270;SDS011;8243;49.048;8.396;2023-06-14T12:12:31;6.33;;;3.50;;
16270;SDS011;8243;49.048;8.396;2023-06-14T12:15:02;5.37;;;3.53;;
16270;SDS011;8243;49.048;8.396;2023-06-14T12:17:31;3.93;;;3.50;;
16270;SDS011;8243;49.048;8.396;2023-06-14T12:19:58;4.33;;;2.80;;
16270;SDS011;8243;49.048;8.396;2023-06-14T12:22:23;5.77;;;3.17;;
16270;SDS011;8243;49.048;8.396;2023-06-14T12:24:53;5.93;;;3.03;;
16270;SDS011;8243;49.048;8.396;2023-06-14T12:27:25;5.60;;;3.40;;
16270;SDS011;8243;49.048;8.396;2023-06-14T12:30:03;3.97;;;2.90;;
16270;SDS011;8243;49.048;8.396;2023-06-14T12:32:29;5.13;;;3.30;;
16270;SDS011;8243;49.048;8.396;2023-06-14T12:34:55;5.07;;;3.40;;
16270;SDS011;8243;49.048;8.396;2023-06-14T12:37:20;3.63;;;3.07;;
16270;SDS011;8243;49.048;8.396;2023-06-14T12:39:46;6.70;;;3.57;;
16270;SDS011;8243;49.048;8.396;2023-06-14T12:42:12;5.87;;;3.23;;
16270;SDS011;8243;49.048;8.396;2023-06-14T12:44:39;4.70;;;3.50;;
16270;SDS011;8243;49.048;8.396;2023-06-14T12:47:06;4.70;;;3.80;;
16270;SDS011;8243;49.048;8.396;2023-06-14T12:49:32;3.33;;;3.03;;
16270;SDS011;8243;49.048;8.396;2023-06-14T12:51:58;4.87;;;3.40;;
16270;SDS011;8243;49.048;8.396;2023-06-14T12:54:23;3.20;;;2.90;;
16270;SDS011;8243;49.048;8.396;2023-06-14T12:56:50;3.97;;;3.07;;
16270;SDS011;8243;49.048;8.396;2023-06-14T12:59:16;4.13;;;3.67;;
16270;SDS011;8243;49.048;8.396;2023-06-14T13:01:43;6.20;;;3.33;;
16270;SDS011;8243;49.048;8.396;2023-06-14T13:04:09;4.23;;;3.80;;
16270;SDS011;8243;49.048;8.396;2023-06-14T13:06:35;5.63;;;3.07;;
16270;SDS011;8243;49.048;8.396;2023-06-14T13:09:01;4.40;;;3.37;;
16270;SDS011;8243;49.048;8.396;2023-06-14T13:11:28;5.90;;;3.40;;
16270;SDS011;8243;49.048;8.396;2023-06-14T13:13:55;3.50;;;3.20;;
16270;SDS011;8243;49.048;8.396;2023-06-14T13:16:21;3.57;;;3.27;;
16270;SDS011;8243;49.048;8.396;2023-06-14T13:18:46;4.30;;;3.23;;
16270;SDS011;8243;49.048;8.396;2023-06-14T13:21:12;5.23;;;3.50;;
16270;SDS011;8243;49.048;8.396;2023-06-14T13:23:37;4.27;;;3.13;;
16270;SDS011;8243;49.048;8.396;2023-06-14T13:26:03;3.27;;;3.00;;
16270;SDS011;8243;49.048;8.396;2023-06-14T13:28:32;4.40;;;3.40;;
16270;SDS011;8243;49.048;8.396;2023-06-14T13:30:59;4.43;;;3.43;;
16270;SDS011;8243;49.048;8.396;2023-06-14T13:33:25;3.53;;;3.10;;
16270;SDS011;8243;49.048;8.396;2023-06-14T13:35:51;3.87;;;3.13;;
16270;SDS011;8243;49.048;8.396;2023-06-14T13:38:17;3.33;;;3.03;;
16270;SDS011;8243;49.048;8.396;2023-06-14T13:40:43;3.40;;;3.10;;
16270;SDS011;8243;49.048;8.396;2023-06-14T13:43:09;4.13;;;3.50;;
16270;SDS011;8243;49.048;8.396;2023-06-14T13:45:35;3.40;;;3.10;;
16270;SDS011;8243;49.048;8.396;2023-06-14T13:48:01;3.97;;;3.20;;
16270;SDS011;8243;49.048;8.396;2023-06-14T13:50:26;3.50;;;3.20;;
16270;SDS011;8243;49.048;8.396;2023-06-14T13:52:52;3.37;;;2.70;;
16270;SDS011;8243;49.048;8.396;2023-06-14T13:55:18;5.07;;;2.93;;
16270;SDS011;8243;49.048;8.396;2023-06-14T13:57:43;4.53;;;3.30;;
16270;SDS011;8243;49.048;8.396;2023-06-14T14:00:10;3.70;;;3.00;;
16270;SDS011;8243;49.048;8.396;2023-06-14T14:02:36;3.13;;;2.77;;
16270;SDS011;8243;49.048;8.396;2023-06-14T14:05:02;6.53;;;3.00;;
16270;SDS011;8243;49.048;8.396;2023-06-14T14:07:28;3.93;;;3.20;;
16270;SDS011;8243;49.048;8.396;2023-06-14T14:09:54;5.33;;;3.10;;
16270;SDS011;8243;49.048;8.396;2023-06-14T14:12:22;3.40;;;3.17;;
16270;SDS011;8243;49.048;8.396;2023-06-14T14:14:48;5.43;;;3.50;;
16270;SDS011;8243;49.048;8.396;2023-06-14T14:17:13;6.53;;;3.10;;
16270;SDS011;8243;49.048;8.396;2023-06-14T14:19:39;5.80;;;3.10;;
16270;SDS011;8243;49.048;8.396;2023-06-14T14:22:05;3.43;;;3.13;;
16270;SDS011;8243;49.048;8.396;2023-06-14T14:24:30;5.73;;;2.90;;
16270;SDS011;8243;49.048;8.396;2023-06-14T14:26:56;4.00;;;3.00;;
16270;SDS011;8243;49.048;8.396;2023-06-14T14:29:25;5.60;;;3.07;;
16270;SDS011;8243;49.048;8.396;2023-06-14T14:31:53;5.50;;;3.00;;
16270;SDS011;8243;49.048;8.396;2023-06-14T14:34:20;3.30;;;3.00;;
16270;SDS011;8243;49.048;8.396;2023-06-14T14:36:46;3.20;;;2.90;;
16270;SDS011;8243;49.048;8.396;2023-06-14T14:39:11;5.27;;;2.80;;
16270;SDS011;8243;49.048;8.396;2023-06-14T14:41:37;3.33;;;3.03;;
16270;SDS011;8243;49.048;8.396;2023-06-14T14:44:03;4.47;;;2.53;;
16270;SDS011;8243;49.048;8.396;2023-06-14T14:46:29;4.00;;;3.20;;
16270;SDS011;8243;49.048;8.396;2023-06-14T14:48:55;3.13;;;2.90;;
16270;SDS011;8243;49.048;8.396;2023-06-14T14:51:20;3.67;;;3.23;;
16270;SDS011;8243;49.048;8.396;2023-06-14T14:53:46;5.50;;;3.40;;
16270;SDS011;8243;49.048;8.396;2023-06-14T14:56:12;4.27;;;3.10;;
16270;SDS011;8243;49.048;8.396;2023-06-14T14:58:37;3.17;;;2.87;;
16270;SDS011;8243;49.048;8.396;2023-06-14T15:01:03;4.30;;;2.60;;
16270;SDS011;8243;49.048;8.396;2023-06-14T15:03:30;3.90;;;2.97;;
16270;SDS011;8243;49.048;8.396;2023-06-14T15:05:56;4.23;;;2.60;;
16270;SDS011;8243;49.048;8.396;2023-06-14T15:08:22;3.13;;;2.83;;
16270;SDS011;8243;49.048;8.396;2023-06-14T15:10:48;4.10;;;2.73;;
16270;SDS011;8243;49.048;8.396;2023-06-14T15:13:13;3.93;;;3.10;;
16270;SDS011;8243;49.048;8.396;2023-06-14T15:15:39;3.00;;;2.80;;